sensor_id;sensor_type;location;lat;lon;timestamp;temperature;humidity
24814;DHT22;12904;50.088;11.414;2023-04-25T00:01:04;8.00;99.90
24814;DHT22;12904;50.088;11.414;2023-04-25T00:03:34;8.00;99.90
24814;DHT22;12904;50.088;11.414;2023-04-25T00:06:01;8.00;99.90
24814;DHT22;12904;50.088;11.414;2023-04-25T00:08:29;8.00;99.90
24814;DHT22;12904;50.088;11.414;2023-04-25T00:10:56;8.10;99.90
24814;DHT22;12904;50.088;11.414;2023-04-25T00:13:21;8.10;99.90
24814;DHT22;12904;50.088;11.414;2023-04-25T00:15:47;8.10;99.90
24814;DHT22;12904;50.088;11.414;2023-04-25T00:18:14;8.10;99.90
24814;DHT22;12904;50.088;11.414;2023-04-25T00:20:40;8.10;99.90
24814;DHT22;12904;50.088;11.414;2023-04-25T00:23:06;8.10;99.90
24814;DHT22;12904;50.088;11.414;2023-04-25T00:25:31;8.10;99.90
24814;DHT22;12904;50.088;11.414;2023-04-25T00:27:57;8.10;99.90
24814;DHT22;12904;50.088;11.414;2023-04-25T00:30:22;8.10;99.90
24814;DHT22;12904;50.088;11.414;2023-04-25T00:32:48;8.10;99.90
24814;DHT22;12904;50.088;11.414;2023-04-25T00:35:14;8.10;99.90
24814;DHT22;12904;50.088;11.414;2023-04-25T00:37:40;8.20;99.90
24814;DHT22;12904;50.088;11.414;2023-04-25T00:40:06;8.20;99.90
24814;DHT22;12904;50.088;11.414;2023-04-25T00:42:32;8.20;99.90
24814;DHT22;12904;50.088;11.414;2023-04-25T00:44:59;8.20;99.90
24814;DHT22;12904;50.088;11.414;2023-04-25T00:47:25;8.20;99.90
24814;DHT22;12904;50.088;11.414;2023-04-25T00:49:51;8.10;99.90
24814;DHT22;12904;50.088;11.414;2023-04-25T00:52:19;8.10;99.90
24814;DHT22;12904;50.088;11.414;2023-04-25T00:54:44;8.10;99.90
24814;DHT22;12904;50.088;11.414;2023-04-25T00:57:10;8.10;99.90
24814;DHT22;12904;50.088;11.414;2023-04-25T00:59:36;8.10;99.90
24814;DHT22;12904;50.088;11.414;2023-04-25T01:02:03;8.10;99.90
24814;DHT22;12904;50.088;11.414;2023-04-25T01:04:30;8.10;99.90
24814;DHT22;12904;50.088;11.414;2023-04-25T01:06:55;8.10;99.90
24814;DHT22;12904;50.088;11.414;2023-04-25T01:09:22;8.10;99.90
24814;DHT22;12904;50.088;11.414;2023-04-25T01:11:49;8.10;99.90
24814;DHT22;12904;50.088;11.414;2023-04-25T01:14:14;8.10;99.90
24814;DHT22;12904;50.088;11.414;2023-04-25T01:16:40;8.00;99.90
24814;DHT22;12904;50.088;11.414;2023-04-25T01:19:10;8.00;99.90
24814;DHT22;12904;50.088;11.414;2023-04-25T01:21:39;8.00;99.90
24814;DHT22;12904;50.088;11.414;2023-04-25T01:24:05;8.00;99.90
24814;DHT22;12904;50.088;11.414;2023-04-25T01:26:32;7.90;99.90
24814;DHT22;12904;50.088;11.414;2023-04-25T01:28:58;7.90;99.90
24814;DHT22;12904;50.088;11.414;2023-04-25T01:31:25;7.90;99.90
24814;DHT22;12904;50.088;11.414;2023-04-25T01:33:52;7.90;99.90
24814;DHT22;12904;50.088;11.414;2023-04-25T01:36:18;7.90;99.90
24814;DHT22;12904;50.088;11.414;2023-04-25T01:38:44;7.90;99.90
24814;DHT22;12904;50.088;11.414;2023-04-25T01:41:13;7.90;99.90
24814;DHT22;12904;50.088;11.414;2023-04-25T01:43:39;7.90;99.90
24814;DHT22;12904;50.088;11.414;2023-04-25T01:46:04;7.90;99.90
24814;DHT22;12904;50.088;11.414;2023-04-25T01:48:30;7.90;99.90
24814;DHT22;12904;50.088;11.414;2023-04-25T01:50:56;7.90;99.90
24814;DHT22;12904;50.088;11.414;2023-04-25T01:53:21;7.90;99.90
24814;DHT22;12904;50.088;11.414;2023-04-25T01:55:48;7.90;99.90
24814;DHT22;12904;50.088;11.414;2023-04-25T01:58:13;7.90;99.90
24814;DHT22;12904;50.088;11.414;2023-04-25T02:00:39;7.80;99.90
24814;DHT22;12904;50.088;11.414;2023-04-25T02:03:06;7.80;99.90
24814;DHT22;12904;50.088;11.414;2023-04-25T02:05:39;7.80;99.90
24814;DHT22;12904;50.088;11.414;2023-04-25T02:08:06;7.80;99.90
24814;DHT22;12904;50.088;11.414;2023-04-25T02:10:33;7.80;99.90
24814;DHT22;12904;50.088;11.414;2023-04-25T02:12:59;7.80;99.90
24814;DHT22;12904;50.088;11.414;2023-04-25T02:15:24;7.80;99.90
24814;DHT22;12904;50.088;11.414;2023-04-25T02:17:50;7.80;99.90
24814;DHT22;12904;50.088;11.414;2023-04-25T02:20:18;7.80;99.90
24814;DHT22;12904;50.088;11.414;2023-04-25T02:22:45;7.80;99.90
24814;DHT22;12904;50.088;11.414;2023-04-25T02:25:11;7.80;99.90
24814;DHT22;12904;50.088;11.414;2023-04-25T02:27:37;7.70;99.90
24814;DHT22;12904;50.088;11.414;2023-04-25T02:30:03;7.70;99.90
24814;DHT22;12904;50.088;11.414;2023-04-25T02:32:30;7.70;99.90
24814;DHT22;12904;50.088;11.414;2023-04-25T02:34:55;7.70;99.90
24814;DHT22;12904;50.088;11.414;2023-04-25T02:37:24;7.60;99.90
24814;DHT22;12904;50.088;11.414;2023-04-25T02:39:49;7.60;99.90
24814;DHT22;12904;50.088;11.414;2023-04-25T02:42:15;7.60;99.90
24814;DHT22;12904;50.088;11.414;2023-04-25T02:44:41;7.70;99.90
24814;DHT22;12904;50.088;11.414;2023-04-25T02:47:06;7.70;99.90
24814;DHT22;12904;50.088;11.414;2023-04-25T02:49:32;7.60;99.90
24814;DHT22;12904;50.088;11.414;2023-04-25T02:51:57;7.60;99.90
24814;DHT22;12904;50.088;11.414;2023-04-25T02:54:23;7.60;99.90
24814;DHT22;12904;50.088;11.414;2023-04-25T02:56:49;7.60;99.90
24814;DHT22;12904;50.088;11.414;2023-04-25T02:59:15;7.60;99.90
24814;DHT22;12904;50.088;11.414;2023-04-25T03:01:40;7.60;99.90
24814;DHT22;12904;50.088;11.414;2023-04-25T03:04:06;7.60;99.90
24814;DHT22;12904;50.088;11.414;2023-04-25T03:06:31;7.60;99.90
24814;DHT22;12904;50.088;11.414;2023-04-25T03:08:57;7.60;99.90
24814;DHT22;12904;50.088;11.414;2023-04-25T03:11:25;7.60;99.90
24814;DHT22;12904;50.088;11.414;2023-04-25T03:13:50;7.60;99.90
24814;DHT22;12904;50.088;11.414;2023-04-25T03:16:16;7.60;99.90
24814;DHT22;12904;50.088;11.414;2023-04-25T03:18:42;7.60;99.90
24814;DHT22;12904;50.088;11.414;2023-04-25T03:21:07;7.60;99.90
24814;DHT22;12904;50.088;11.414;2023-04-25T03:23:33;7.60;99.90
24814;DHT22;12904;50.088;11.414;2023-04-25T03:25:59;7.60;99.90
24814;DHT22;12904;50.088;11.414;2023-04-25T03:28:24;7.60;99.90
24814;DHT22;12904;50.088;11.414;2023-04-25T03:30:50;7.60;99.90
24814;DHT22;12904;50.088;11.414;2023-04-25T03:33:16;7.60;99.90
24814;DHT22;12904;50.088;11.414;2023-04-25T03:35:42;7.60;99.90
24814;DHT22;12904;50.088;11.414;2023-04-25T03:38:08;7.60;99.90
24814;DHT22;12904;50.088;11.414;2023-04-25T03:40:33;7.60;99.90
24814;DHT22;12904;50.088;11.414;2023-04-25T03:42:59;7.60;99.90
24814;DHT22;12904;50.088;11.414;2023-04-25T03:45:25;7.60;99.90
24814;DHT22;12904;50.088;11.414;2023-04-25T03:47:51;7.60;99.90
24814;DHT22;12904;50.088;11.414;2023-04-25T03:50:16;7.60;99.90
24814;DHT22;12904;50.088;11.414;2023-04-25T03:52:43;7.60;99.90
24814;DHT22;12904;50.088;11.414;2023-04-25T03:55:09;7.60;99.90
24814;DHT22;12904;50.088;11.414;2023-04-25T03:57:35;7.70;99.90
24814;DHT22;12904;50.088;11.414;2023-04-25T04:00:00;7.70;99.90
24814;DHT22;12904;50.088;11.414;2023-04-25T04:02:26;7.70;99.90
24814;DHT22;12904;50.088;11.414;2023-04-25T04:04:52;7.70;99.90
24814;DHT22;12904;50.088;11.414;2023-04-25T04:07:17;7.80;99.90
24814;DHT22;12904;50.088;11.414;2023-04-25T04:09:43;7.80;99.90
24814;DHT22;12904;50.088;11.414;2023-04-25T04:12:09;7.80;99.90
24814;DHT22;12904;50.088;11.414;2023-04-25T04:14:34;7.80;99.90
24814;DHT22;12904;50.088;11.414;2023-04-25T04:17:00;7.80;99.90
24814;DHT22;12904;50.088;11.414;2023-04-25T04:19:26;7.70;99.90
24814;DHT22;12904;50.088;11.414;2023-04-25T04:21:51;7.70;99.90
24814;DHT22;12904;50.088;11.414;2023-04-25T04:24:17;7.60;99.90
24814;DHT22;12904;50.088;11.414;2023-04-25T04:26:42;7.60;99.90
24814;DHT22;12904;50.088;11.414;2023-04-25T04:29:10;7.50;99.90
24814;DHT22;12904;50.088;11.414;2023-04-25T04:31:36;7.50;99.90
24814;DHT22;12904;50.088;11.414;2023-04-25T04:34:02;7.30;99.90
24814;DHT22;12904;50.088;11.414;2023-04-25T04:36:29;7.30;99.90
24814;DHT22;12904;50.088;11.414;2023-04-25T04:38:55;7.10;99.90
24814;DHT22;12904;50.088;11.414;2023-04-25T04:41:22;7.10;99.90
24814;DHT22;12904;50.088;11.414;2023-04-25T04:43:47;7.00;99.90
24814;DHT22;12904;50.088;11.414;2023-04-25T04:46:13;7.00;99.90
24814;DHT22;12904;50.088;11.414;2023-04-25T04:48:39;6.90;99.90
24814;DHT22;12904;50.088;11.414;2023-04-25T04:51:06;6.90;99.90
24814;DHT22;12904;50.088;11.414;2023-04-25T04:53:32;6.80;99.90
24814;DHT22;12904;50.088;11.414;2023-04-25T04:55:57;6.80;99.90
24814;DHT22;12904;50.088;11.414;2023-04-25T04:58:24;6.80;99.90
24814;DHT22;12904;50.088;11.414;2023-04-25T05:00:49;6.70;99.90
24814;DHT22;12904;50.088;11.414;2023-04-25T05:03:15;6.70;99.90
24814;DHT22;12904;50.088;11.414;2023-04-25T05:05:41;6.70;99.90
24814;DHT22;12904;50.088;11.414;2023-04-25T05:08:07;6.60;99.90
24814;DHT22;12904;50.088;11.414;2023-04-25T05:10:32;6.60;99.90
24814;DHT22;12904;50.088;11.414;2023-04-25T05:12:58;6.70;99.90
24814;DHT22;12904;50.088;11.414;2023-04-25T05:15:24;6.70;99.90
24814;DHT22;12904;50.088;11.414;2023-04-25T05:17:50;6.70;99.90
24814;DHT22;12904;50.088;11.414;2023-04-25T05:20:15;6.60;99.90
24814;DHT22;12904;50.088;11.414;2023-04-25T05:22:41;6.50;99.90
24814;DHT22;12904;50.088;11.414;2023-04-25T05:25:08;6.50;99.90
24814;DHT22;12904;50.088;11.414;2023-04-25T05:27:34;6.50;99.90
24814;DHT22;12904;50.088;11.414;2023-04-25T05:30:00;6.40;99.90
24814;DHT22;12904;50.088;11.414;2023-04-25T05:32:26;6.40;99.90
24814;DHT22;12904;50.088;11.414;2023-04-25T05:34:51;6.50;99.90
24814;DHT22;12904;50.088;11.414;2023-04-25T05:37:17;6.50;99.90
24814;DHT22;12904;50.088;11.414;2023-04-25T05:39:43;6.50;99.90
24814;DHT22;12904;50.088;11.414;2023-04-25T05:42:09;6.50;99.90
24814;DHT22;12904;50.088;11.414;2023-04-25T05:44:34;6.60;99.90
24814;DHT22;12904;50.088;11.414;2023-04-25T05:47:00;6.60;99.90
24814;DHT22;12904;50.088;11.414;2023-04-25T05:49:25;6.60;99.90
24814;DHT22;12904;50.088;11.414;2023-04-25T05:51:51;6.70;99.90
24814;DHT22;12904;50.088;11.414;2023-04-25T05:54:17;6.70;99.90
24814;DHT22;12904;50.088;11.414;2023-04-25T05:56:42;6.80;99.90
24814;DHT22;12904;50.088;11.414;2023-04-25T05:59:08;6.80;99.90
24814;DHT22;12904;50.088;11.414;2023-04-25T06:01:34;6.80;99.90
24814;DHT22;12904;50.088;11.414;2023-04-25T06:03:59;6.90;99.90
24814;DHT22;12904;50.088;11.414;2023-04-25T06:06:25;7.00;99.90
24814;DHT22;12904;50.088;11.414;2023-04-25T06:08:52;7.10;99.90
24814;DHT22;12904;50.088;11.414;2023-04-25T06:11:17;7.30;99.90
24814;DHT22;12904;50.088;11.414;2023-04-25T06:13:43;7.30;99.90
24814;DHT22;12904;50.088;11.414;2023-04-25T06:16:08;7.40;99.90
24814;DHT22;12904;50.088;11.414;2023-04-25T06:18:34;7.50;99.90
24814;DHT22;12904;50.088;11.414;2023-04-25T06:21:00;7.60;99.90
24814;DHT22;12904;50.088;11.414;2023-04-25T06:23:26;7.70;99.90
24814;DHT22;12904;50.088;11.414;2023-04-25T06:25:51;7.80;99.90
24814;DHT22;12904;50.088;11.414;2023-04-25T06:28:17;7.90;99.90
24814;DHT22;12904;50.088;11.414;2023-04-25T06:30:43;7.80;99.90
24814;DHT22;12904;50.088;11.414;2023-04-25T06:33:08;7.80;99.90
24814;DHT22;12904;50.088;11.414;2023-04-25T06:35:34;7.80;99.90
24814;DHT22;12904;50.088;11.414;2023-04-25T06:38:00;7.80;99.90
24814;DHT22;12904;50.088;11.414;2023-04-25T06:40:26;7.90;99.90
24814;DHT22;12904;50.088;11.414;2023-04-25T06:42:51;7.90;99.90
24814;DHT22;12904;50.088;11.414;2023-04-25T06:45:17;8.00;99.90
24814;DHT22;12904;50.088;11.414;2023-04-25T06:47:43;8.10;99.90
24814;DHT22;12904;50.088;11.414;2023-04-25T06:50:08;8.10;99.90
24814;DHT22;12904;50.088;11.414;2023-04-25T06:52:34;8.00;99.90
24814;DHT22;12904;50.088;11.414;2023-04-25T06:55:00;8.00;99.90
24814;DHT22;12904;50.088;11.414;2023-04-25T06:57:25;8.00;99.90
24814;DHT22;12904;50.088;11.414;2023-04-25T06:59:51;7.90;99.90
24814;DHT22;12904;50.088;11.414;2023-04-25T07:02:17;8.00;99.90
24814;DHT22;12904;50.088;11.414;2023-04-25T07:04:42;8.20;99.90
24814;DHT22;12904;50.088;11.414;2023-04-25T07:07:08;8.50;99.90
24814;DHT22;12904;50.088;11.414;2023-04-25T07:09:33;8.60;99.90
24814;DHT22;12904;50.088;11.414;2023-04-25T07:12:00;8.60;99.90
24814;DHT22;12904;50.088;11.414;2023-04-25T07:14:27;8.60;99.90
24814;DHT22;12904;50.088;11.414;2023-04-25T07:16:53;8.70;99.90
24814;DHT22;12904;50.088;11.414;2023-04-25T07:19:21;8.80;99.90
24814;DHT22;12904;50.088;11.414;2023-04-25T07:21:46;8.80;99.90
24814;DHT22;12904;50.088;11.414;2023-04-25T07:24:12;8.90;99.90
24814;DHT22;12904;50.088;11.414;2023-04-25T07:26:38;8.90;99.90
24814;DHT22;12904;50.088;11.414;2023-04-25T07:29:03;8.80;99.90
24814;DHT22;12904;50.088;11.414;2023-04-25T07:31:29;8.70;99.90
24814;DHT22;12904;50.088;11.414;2023-04-25T07:33:54;8.50;99.90
24814;DHT22;12904;50.088;11.414;2023-04-25T07:36:20;8.50;99.90
24814;DHT22;12904;50.088;11.414;2023-04-25T07:38:46;8.40;99.90
24814;DHT22;12904;50.088;11.414;2023-04-25T07:41:12;8.40;99.90
24814;DHT22;12904;50.088;11.414;2023-04-25T07:43:38;8.50;99.90
24814;DHT22;12904;50.088;11.414;2023-04-25T07:46:04;8.50;99.90
24814;DHT22;12904;50.088;11.414;2023-04-25T07:48:30;8.50;99.90
24814;DHT22;12904;50.088;11.414;2023-04-25T07:50:55;8.50;99.90
24814;DHT22;12904;50.088;11.414;2023-04-25T07:53:21;8.50;99.90
24814;DHT22;12904;50.088;11.414;2023-04-25T07:55:47;8.60;99.90
24814;DHT22;12904;50.088;11.414;2023-04-25T07:58:13;8.60;99.90
24814;DHT22;12904;50.088;11.414;2023-04-25T08:00:39;8.70;99.90
24814;DHT22;12904;50.088;11.414;2023-04-25T08:03:04;8.80;99.90
24814;DHT22;12904;50.088;11.414;2023-04-25T08:05:31;8.90;99.90
24814;DHT22;12904;50.088;11.414;2023-04-25T08:07:57;9.00;99.90
24814;DHT22;12904;50.088;11.414;2023-04-25T08:10:23;9.10;99.90
24814;DHT22;12904;50.088;11.414;2023-04-25T08:12:48;9.10;99.90
24814;DHT22;12904;50.088;11.414;2023-04-25T08:15:14;9.10;99.90
24814;DHT22;12904;50.088;11.414;2023-04-25T08:17:40;9.10;99.90
24814;DHT22;12904;50.088;11.414;2023-04-25T08:20:06;9.10;99.90
24814;DHT22;12904;50.088;11.414;2023-04-25T08:22:32;9.30;99.90
24814;DHT22;12904;50.088;11.414;2023-04-25T08:24:59;9.60;99.90
24814;DHT22;12904;50.088;11.414;2023-04-25T08:27:25;9.90;99.90
24814;DHT22;12904;50.088;11.414;2023-04-25T08:29:50;10.10;99.90
24814;DHT22;12904;50.088;11.414;2023-04-25T08:32:16;10.20;99.90
24814;DHT22;12904;50.088;11.414;2023-04-25T08:34:42;10.20;99.90
24814;DHT22;12904;50.088;11.414;2023-04-25T08:37:09;10.20;99.90
24814;DHT22;12904;50.088;11.414;2023-04-25T08:39:36;10.30;99.90
24814;DHT22;12904;50.088;11.414;2023-04-25T08:42:05;10.40;99.90
24814;DHT22;12904;50.088;11.414;2023-04-25T08:44:34;10.40;99.90
24814;DHT22;12904;50.088;11.414;2023-04-25T08:47:05;10.40;99.90
24814;DHT22;12904;50.088;11.414;2023-04-25T08:49:34;10.30;99.90
24814;DHT22;12904;50.088;11.414;2023-04-25T08:52:02;10.10;99.90
24814;DHT22;12904;50.088;11.414;2023-04-25T08:54:31;10.00;99.90
24814;DHT22;12904;50.088;11.414;2023-04-25T08:56:59;9.70;99.90
24814;DHT22;12904;50.088;11.414;2023-04-25T08:59:27;9.60;99.90
24814;DHT22;12904;50.088;11.414;2023-04-25T09:01:53;9.50;99.90
24814;DHT22;12904;50.088;11.414;2023-04-25T09:04:19;9.40;99.90
24814;DHT22;12904;50.088;11.414;2023-04-25T09:06:46;9.50;99.90
24814;DHT22;12904;50.088;11.414;2023-04-25T09:09:12;9.50;99.90
24814;DHT22;12904;50.088;11.414;2023-04-25T09:11:37;9.50;99.90
24814;DHT22;12904;50.088;11.414;2023-04-25T09:14:18;9.70;99.90
24814;DHT22;12904;50.088;11.414;2023-04-25T09:16:58;10.30;99.90
24814;DHT22;12904;50.088;11.414;2023-04-25T09:19:36;10.70;99.90
24814;DHT22;12904;50.088;11.414;2023-04-25T09:22:05;11.30;99.90
24814;DHT22;12904;50.088;11.414;2023-04-25T09:24:44;12.40;99.90
24814;DHT22;12904;50.088;11.414;2023-04-25T09:27:13;13.10;96.70
24814;DHT22;12904;50.088;11.414;2023-04-25T09:29:43;13.50;92.90
24814;DHT22;12904;50.088;11.414;2023-04-25T09:32:23;14.10;93.00
24814;DHT22;12904;50.088;11.414;2023-04-25T09:34:50;14.60;90.70
24814;DHT22;12904;50.088;11.414;2023-04-25T09:37:29;14.80;89.60
24814;DHT22;12904;50.088;11.414;2023-04-25T09:39:59;13.90;75.30
24814;DHT22;12904;50.088;11.414;2023-04-25T09:42:26;13.50;80.50
24814;DHT22;12904;50.088;11.414;2023-04-25T09:44:54;13.50;82.80
24814;DHT22;12904;50.088;11.414;2023-04-25T09:47:22;14.00;82.40
24814;DHT22;12904;50.088;11.414;2023-04-25T09:49:49;14.50;78.90
24814;DHT22;12904;50.088;11.414;2023-04-25T09:52:17;15.00;77.30
24814;DHT22;12904;50.088;11.414;2023-04-25T09:54:48;14.90;76.20
24814;DHT22;12904;50.088;11.414;2023-04-25T09:57:22;14.50;77.60
24814;DHT22;12904;50.088;11.414;2023-04-25T09:59:53;14.60;79.20
24814;DHT22;12904;50.088;11.414;2023-04-25T10:02:23;14.70;76.60
24814;DHT22;12904;50.088;11.414;2023-04-25T10:04:51;15.00;73.60
24814;DHT22;12904;50.088;11.414;2023-04-25T10:07:21;15.10;72.70
24814;DHT22;12904;50.088;11.414;2023-04-25T10:10:03;15.40;74.50
24814;DHT22;12904;50.088;11.414;2023-04-25T10:12:29;15.80;72.30
24814;DHT22;12904;50.088;11.414;2023-04-25T10:14:58;16.20;70.20
24814;DHT22;12904;50.088;11.414;2023-04-25T10:17:23;16.40;70.60
24814;DHT22;12904;50.088;11.414;2023-04-25T10:19:50;15.80;69.90
24814;DHT22;12904;50.088;11.414;2023-04-25T10:24:55;14.60;70.70
24814;DHT22;12904;50.088;11.414;2023-04-25T10:27:22;14.10;73.40
24814;DHT22;12904;50.088;11.414;2023-04-25T10:30:04;13.70;75.10
24814;DHT22;12904;50.088;11.414;2023-04-25T10:32:31;13.60;75.30
24814;DHT22;12904;50.088;11.414;2023-04-25T10:34:58;13.60;76.00
24814;DHT22;12904;50.088;11.414;2023-04-25T10:37:24;13.40;76.10
24814;DHT22;12904;50.088;11.414;2023-04-25T10:39:50;13.50;79.80
24814;DHT22;12904;50.088;11.414;2023-04-25T10:42:15;13.20;77.30
24814;DHT22;12904;50.088;11.414;2023-04-25T10:45:01;13.10;81.20
24814;DHT22;12904;50.088;11.414;2023-04-25T10:47:43;13.40;80.80
24814;DHT22;12904;50.088;11.414;2023-04-25T10:50:10;13.50;76.60
24814;DHT22;12904;50.088;11.414;2023-04-25T10:52:38;13.70;77.00
24814;DHT22;12904;50.088;11.414;2023-04-25T10:55:05;13.60;77.40
24814;DHT22;12904;50.088;11.414;2023-04-25T11:00:09;12.70;76.90
24814;DHT22;12904;50.088;11.414;2023-04-25T11:02:42;12.70;80.00
24814;DHT22;12904;50.088;11.414;2023-04-25T11:05:09;13.10;77.70
24814;DHT22;12904;50.088;11.414;2023-04-25T11:07:39;13.50;76.90
24814;DHT22;12904;50.088;11.414;2023-04-25T11:10:09;13.90;73.40
24814;DHT22;12904;50.088;11.414;2023-04-25T11:12:35;13.90;74.60
24814;DHT22;12904;50.088;11.414;2023-04-25T11:15:02;13.60;74.00
24814;DHT22;12904;50.088;11.414;2023-04-25T11:17:28;13.50;76.30
24814;DHT22;12904;50.088;11.414;2023-04-25T11:19:54;13.50;76.80
24814;DHT22;12904;50.088;11.414;2023-04-25T11:22:22;13.50;76.70
24814;DHT22;12904;50.088;11.414;2023-04-25T11:24:47;13.50;77.00
24814;DHT22;12904;50.088;11.414;2023-04-25T11:27:13;13.70;75.30
24814;DHT22;12904;50.088;11.414;2023-04-25T11:29:40;13.80;74.50
24814;DHT22;12904;50.088;11.414;2023-04-25T11:32:05;13.70;76.00
24814;DHT22;12904;50.088;11.414;2023-04-25T11:34:32;13.50;75.60
24814;DHT22;12904;50.088;11.414;2023-04-25T11:37:01;13.40;75.90
24814;DHT22;12904;50.088;11.414;2023-04-25T11:39:28;13.30;77.50
24814;DHT22;12904;50.088;11.414;2023-04-25T11:41:54;13.40;77.10
24814;DHT22;12904;50.088;11.414;2023-04-25T11:44:21;13.50;78.80
24814;DHT22;12904;50.088;11.414;2023-04-25T11:46:47;13.70;77.80
24814;DHT22;12904;50.088;11.414;2023-04-25T11:49:14;13.80;73.80
24814;DHT22;12904;50.088;11.414;2023-04-25T11:51:40;13.40;73.70
24814;DHT22;12904;50.088;11.414;2023-04-25T11:54:06;13.40;76.20
24814;DHT22;12904;50.088;11.414;2023-04-25T11:56:32;13.30;77.50
24814;DHT22;12904;50.088;11.414;2023-04-25T11:59:07;13.30;78.00
24814;DHT22;12904;50.088;11.414;2023-04-25T12:01:37;13.30;77.90
24814;DHT22;12904;50.088;11.414;2023-04-25T12:04:22;13.30;75.50
24814;DHT22;12904;50.088;11.414;2023-04-25T12:06:50;13.00;76.50
24814;DHT22;12904;50.088;11.414;2023-04-25T12:09:21;12.80;79.70
24814;DHT22;12904;50.088;11.414;2023-04-25T12:11:54;12.70;80.80
24814;DHT22;12904;50.088;11.414;2023-04-25T12:14:25;12.60;79.80
24814;DHT22;12904;50.088;11.414;2023-04-25T12:16:54;12.40;79.90
24814;DHT22;12904;50.088;11.414;2023-04-25T12:19:21;12.30;80.30
24814;DHT22;12904;50.088;11.414;2023-04-25T12:21:48;12.40;79.20
24814;DHT22;12904;50.088;11.414;2023-04-25T12:24:18;12.60;79.10
24814;DHT22;12904;50.088;11.414;2023-04-25T12:29:21;12.80;78.40
24814;DHT22;12904;50.088;11.414;2023-04-25T12:31:47;13.00;79.70
24814;DHT22;12904;50.088;11.414;2023-04-25T12:34:13;13.00;77.80
24814;DHT22;12904;50.088;11.414;2023-04-25T12:36:40;13.10;78.60
24814;DHT22;12904;50.088;11.414;2023-04-25T12:39:05;13.10;77.80
24814;DHT22;12904;50.088;11.414;2023-04-25T12:41:32;13.10;77.50
24814;DHT22;12904;50.088;11.414;2023-04-25T12:43:57;13.40;75.90
24814;DHT22;12904;50.088;11.414;2023-04-25T12:46:23;13.70;73.00
24814;DHT22;12904;50.088;11.414;2023-04-25T12:48:49;13.60;73.00
24814;DHT22;12904;50.088;11.414;2023-04-25T12:51:15;13.50;72.90
24814;DHT22;12904;50.088;11.414;2023-04-25T12:53:41;13.50;73.40
24814;DHT22;12904;50.088;11.414;2023-04-25T12:56:07;13.70;73.30
24814;DHT22;12904;50.088;11.414;2023-04-25T12:58:33;13.80;72.30
24814;DHT22;12904;50.088;11.414;2023-04-25T13:00:59;14.20;74.70
24814;DHT22;12904;50.088;11.414;2023-04-25T13:03:24;14.50;71.40
24814;DHT22;12904;50.088;11.414;2023-04-25T13:05:51;14.50;69.80
24814;DHT22;12904;50.088;11.414;2023-04-25T13:08:18;14.70;70.20
24814;DHT22;12904;50.088;11.414;2023-04-25T13:10:44;14.80;69.40
24814;DHT22;12904;50.088;11.414;2023-04-25T13:13:09;14.70;69.00
24814;DHT22;12904;50.088;11.414;2023-04-25T13:15:35;14.60;67.90
24814;DHT22;12904;50.088;11.414;2023-04-25T13:18:03;14.60;70.80
24814;DHT22;12904;50.088;11.414;2023-04-25T13:20:28;14.50;70.40
24814;DHT22;12904;50.088;11.414;2023-04-25T13:22:54;14.20;69.20
24814;DHT22;12904;50.088;11.414;2023-04-25T13:25:20;14.00;70.50
24814;DHT22;12904;50.088;11.414;2023-04-25T13:27:47;13.90;69.70
24814;DHT22;12904;50.088;11.414;2023-04-25T13:30:13;13.80;70.70
24814;DHT22;12904;50.088;11.414;2023-04-25T13:32:39;14.00;69.20
24814;DHT22;12904;50.088;11.414;2023-04-25T13:35:07;14.10;69.40
24814;DHT22;12904;50.088;11.414;2023-04-25T13:37:34;13.90;67.20
24814;DHT22;12904;50.088;11.414;2023-04-25T13:40:01;13.60;68.50
24814;DHT22;12904;50.088;11.414;2023-04-25T13:42:27;13.40;70.60
24814;DHT22;12904;50.088;11.414;2023-04-25T13:44:53;13.30;70.30
24814;DHT22;12904;50.088;11.414;2023-04-25T13:47:19;13.20;71.10
24814;DHT22;12904;50.088;11.414;2023-04-25T13:49:45;13.00;71.90
24814;DHT22;12904;50.088;11.414;2023-04-25T13:52:10;12.80;71.60
24814;DHT22;12904;50.088;11.414;2023-04-25T13:54:36;12.60;71.70
24814;DHT22;12904;50.088;11.414;2023-04-25T13:57:01;12.40;71.30
24814;DHT22;12904;50.088;11.414;2023-04-25T13:59:27;12.20;73.20
24814;DHT22;12904;50.088;11.414;2023-04-25T14:01:53;12.00;74.90
24814;DHT22;12904;50.088;11.414;2023-04-25T14:04:18;11.80;76.70
24814;DHT22;12904;50.088;11.414;2023-04-25T14:06:44;11.80;79.00
24814;DHT22;12904;50.088;11.414;2023-04-25T14:09:11;11.70;76.70
24814;DHT22;12904;50.088;11.414;2023-04-25T14:11:37;11.60;77.40
24814;DHT22;12904;50.088;11.414;2023-04-25T14:14:03;11.50;79.40
24814;DHT22;12904;50.088;11.414;2023-04-25T14:16:29;11.60;80.50
24814;DHT22;12904;50.088;11.414;2023-04-25T14:18:59;11.80;79.70
24814;DHT22;12904;50.088;11.414;2023-04-25T14:21:25;11.90;76.90
24814;DHT22;12904;50.088;11.414;2023-04-25T14:23:52;11.90;77.50
24814;DHT22;12904;50.088;11.414;2023-04-25T14:26:18;11.90;77.00
24814;DHT22;12904;50.088;11.414;2023-04-25T14:28:43;11.80;76.30
24814;DHT22;12904;50.088;11.414;2023-04-25T14:31:09;11.70;76.80
24814;DHT22;12904;50.088;11.414;2023-04-25T14:33:35;11.70;77.00
24814;DHT22;12904;50.088;11.414;2023-04-25T14:36:02;11.60;76.60
24814;DHT22;12904;50.088;11.414;2023-04-25T14:38:28;11.50;77.30
24814;DHT22;12904;50.088;11.414;2023-04-25T14:40:54;11.50;79.00
24814;DHT22;12904;50.088;11.414;2023-04-25T14:43:20;11.30;78.10
24814;DHT22;12904;50.088;11.414;2023-04-25T14:45:45;11.30;78.00
24814;DHT22;12904;50.088;11.414;2023-04-25T14:48:11;11.30;78.10
24814;DHT22;12904;50.088;11.414;2023-04-25T14:50:36;11.50;78.80
24814;DHT22;12904;50.088;11.414;2023-04-25T14:53:02;11.80;75.90
24814;DHT22;12904;50.088;11.414;2023-04-25T14:55:28;11.70;76.30
24814;DHT22;12904;50.088;11.414;2023-04-25T14:57:54;11.70;74.10
24814;DHT22;12904;50.088;11.414;2023-04-25T15:00:20;11.60;74.90
24814;DHT22;12904;50.088;11.414;2023-04-25T15:02:50;11.70;76.20
24814;DHT22;12904;50.088;11.414;2023-04-25T15:05:16;11.90;77.00
24814;DHT22;12904;50.088;11.414;2023-04-25T15:07:43;12.30;75.60
24814;DHT22;12904;50.088;11.414;2023-04-25T15:10:10;12.90;74.10
24814;DHT22;12904;50.088;11.414;2023-04-25T15:12:41;13.40;73.50
24814;DHT22;12904;50.088;11.414;2023-04-25T15:15:08;13.70;72.20
24814;DHT22;12904;50.088;11.414;2023-04-25T15:17:43;13.60;71.00
24814;DHT22;12904;50.088;11.414;2023-04-25T15:20:11;13.20;71.90
24814;DHT22;12904;50.088;11.414;2023-04-25T15:22:38;12.60;70.30
24814;DHT22;12904;50.088;11.414;2023-04-25T15:25:04;12.20;72.60
24814;DHT22;12904;50.088;11.414;2023-04-25T15:27:30;11.70;74.00
24814;DHT22;12904;50.088;11.414;2023-04-25T15:29:56;11.60;77.50